Time;durP1;ratioP1;P1;durP2;ratioP2;P2;SDS_P1;SDS_P2;PMS_P1;PMS_P2;Temp;Humidity;BMP_temperature;BMP_pressure;BME280_temperature;BME280_humidity;BME280_pressure;Samples;Min_cycle;Max_cycle;Signal;HPM_P1;HPM_P2
2020/12/17 00:00:05;;;;;;;3.37;2.10;;;19.80;55.80;;;;;;4999772;28;23136;-57
2020/12/17 00:02:31;;;;;;;2.77;1.83;;;19.80;55.80;;;;;;5008126;28;21536;-57
2020/12/17 00:04:58;;;;;;;3.70;2.20;;;19.80;55.80;;;;;;5002270;28;20226;-58
2020/12/17 00:07:24;;;;;;;2.40;2.20;;;19.70;55.80;;;;;;5004702;28;20231;-57
2020/12/17 00:09:50;;;;;;;2.57;2.20;;;19.70;55.80;;;;;;5007969;28;20231;-57
2020/12/17 00:12:16;;;;;;;2.90;1.73;;;19.70;55.90;;;;;;4999049;28;20227;-58
2020/12/17 00:14:43;;;;;;;1.80;1.70;;;19.70;56.00;;;;;;5006994;28;20224;-57
2020/12/17 00:17:09;;;;;;;1.90;1.80;;;19.70;56.10;;;;;;5001094;28;20215;-57
2020/12/17 00:19:35;;;;;;;2.63;1.93;;;19.60;56.10;;;;;;5007111;28;20295;-59
2020/12/17 00:22:01;;;;;;;2.07;1.70;;;19.60;56.10;;;;;;4998807;28;20232;-59
2020/12/17 00:24:28;;;;;;;2.00;1.80;;;19.60;56.20;;;;;;5009035;28;20223;-59
2020/12/17 00:26:54;;;;;;;1.80;1.70;;;19.60;56.20;;;;;;4999087;28;20222;-57
2020/12/17 00:29:20;;;;;;;1.70;1.60;;;19.60;56.30;;;;;;5008462;28;20892;-59
2020/12/17 00:31:50;;;;;;;1.90;1.70;;;19.60;56.30;;;;;;4980805;28;20221;-58
2020/12/17 00:34:16;;;;;;;1.77;1.67;;;19.60;56.40;;;;;;4987739;28;20243;-59
2020/12/17 00:36:51;;;;;;;1.87;1.60;;;19.50;56.40;;;;;;4985583;28;20212;-58
2020/12/17 00:39:19;;;;;;;1.80;1.70;;;19.50;56.40;;;;;;5006215;28;20850;-58
2020/12/17 00:41:46;;;;;;;1.87;1.57;;;19.50;56.40;;;;;;4996835;28;20227;-59
2020/12/17 00:44:12;;;;;;;2.60;1.70;;;19.40;56.50;;;;;;5006930;28;20692;-59
2020/12/17 00:46:39;;;;;;;2.03;1.50;;;19.50;56.50;;;;;;5000667;28;20224;-58
2020/12/17 00:49:05;;;;;;;1.97;1.70;;;19.50;56.50;;;;;;5003889;28;20334;-57
2020/12/17 00:51:32;;;;;;;1.53;1.43;;;19.40;56.40;;;;;;5006382;28;20227;-57
2020/12/17 00:53:58;;;;;;;1.90;1.67;;;19.40;56.50;;;;;;4997539;28;20285;-59
2020/12/17 00:56:24;;;;;;;2.20;1.80;;;19.40;56.50;;;;;;5005921;28;20239;-58
2020/12/17 00:58:50;;;;;;;1.97;1.77;;;19.40;56.60;;;;;;4998530;28;20451;-58
2020/12/17 01:01:17;;;;;;;1.60;1.50;;;19.40;56.60;;;;;;5006120;28;20258;-58
2020/12/17 01:03:43;;;;;;;1.80;1.47;;;19.40;56.70;;;;;;4995920;28;20253;-57
2020/12/17 01:06:10;;;;;;;2.10;1.40;;;19.40;56.70;;;;;;5007499;28;20219;-57
2020/12/17 01:08:36;;;;;;;1.90;1.70;;;19.40;56.80;;;;;;4997939;28;21976;-57
2020/12/17 01:11:03;;;;;;;1.97;1.57;;;19.30;56.70;;;;;;5004410;28;20226;-57
2020/12/17 01:13:29;;;;;;;1.63;1.47;;;19.40;56.80;;;;;;4998668;28;20234;-57
2020/12/17 01:15:57;;;;;;;2.00;1.70;;;19.30;56.70;;;;;;5006379;28;20231;-57
2020/12/17 01:18:23;;;;;;;1.90;1.60;;;19.30;56.70;;;;;;4998277;28;20231;-57
2020/12/17 01:20:50;;;;;;;1.70;1.60;;;19.30;56.80;;;;;;5005300;28;20640;-57
2020/12/17 01:23:17;;;;;;;1.60;1.43;;;19.30;56.80;;;;;;4998252;28;20224;-60
2020/12/17 01:25:43;;;;;;;1.53;1.43;;;19.30;56.80;;;;;;5006480;28;20742;-57
2020/12/17 01:28:13;;;;;;;1.57;1.47;;;19.30;56.90;;;;;;5006224;28;20226;-58
2020/12/17 01:30:39;;;;;;;1.57;1.47;;;19.30;56.90;;;;;;4997656;28;20566;-57
2020/12/17 01:33:06;;;;;;;2.17;1.70;;;19.30;56.90;;;;;;5005575;28;20226;-59
2020/12/17 01:35:33;;;;;;;2.00;1.80;;;19.30;57.00;;;;;;4996657;28;20238;-58
2020/12/17 01:38:04;;;;;;;2.13;1.43;;;19.20;56.90;;;;;;5006058;28;20219;-57
2020/12/17 01:40:31;;;;;;;1.63;1.53;;;19.20;57.00;;;;;;4997405;28;20633;-57
2020/12/17 01:42:57;;;;;;;2.27;1.50;;;19.20;57.00;;;;;;5005920;28;20699;-57
2020/12/17 01:45:24;;;;;;;1.20;1.10;;;19.20;57.00;;;;;;4999864;28;20315;-59
2020/12/17 01:47:52;;;;;;;1.60;1.50;;;19.20;57.00;;;;;;5005706;28;20703;-58
2020/12/17 01:50:20;;;;;;;1.93;1.33;;;19.20;57.10;;;;;;4997524;28;20235;-58
2020/12/17 01:52:46;;;;;;;1.80;1.47;;;19.20;57.10;;;;;;5003253;28;20227;-58
2020/12/17 01:55:13;;;;;;;1.70;1.50;;;19.20;57.00;;;;;;4998970;28;20243;-59
2020/12/17 01:57:44;;;;;;;1.87;1.30;;;19.10;57.10;;;;;;4988302;28;20641;-57
2020/12/17 02:00:12;;;;;;;2.80;1.50;;;19.10;57.10;;;;;;4987001;28;20609;-59
2020/12/17 02:02:40;;;;;;;1.87;1.30;;;19.10;57.10;;;;;;4991478;28;20332;-58
2020/12/17 02:05:07;;;;;;;1.20;1.10;;;19.20;57.20;;;;;;4977325;28;20232;-60
2020/12/17 02:07:39;;;;;;;1.90;1.70;;;19.10;57.10;;;;;;4986011;28;20855;-58
2020/12/17 02:10:05;;;;;;;1.80;1.30;;;19.10;57.10;;;;;;4991160;28;20586;-59
2020/12/17 02:12:48;;;;;;;1.77;1.60;;;19.10;57.10;;;;;;4988238;28;20235;-59
2020/12/17 02:15:19;;;;;;;1.77;1.63;;;19.10;57.20;;;;;;4989842;28;23389;-57
2020/12/17 02:17:46;;;;;;;1.33;1.23;;;19.00;57.10;;;;;;4996579;28;20635;-58
2020/12/17 02:20:14;;;;;;;1.97;1.67;;;19.10;57.20;;;;;;4986453;28;20217;-58
2020/12/17 02:22:41;;;;;;;1.60;1.27;;;19.10;57.20;;;;;;4978881;28;20247;-58
2020/12/17 02:25:13;;;;;;;1.47;1.20;;;19.00;57.10;;;;;;5000913;28;20352;-57
2020/12/17 02:27:40;;;;;;;1.77;1.40;;;19.00;57.20;;;;;;4985173;28;21917;-57
2020/12/17 02:30:08;;;;;;;1.90;1.50;;;19.00;57.20;;;;;;4988335;28;20231;-57
2020/12/17 02:32:35;;;;;;;1.40;1.30;;;19.00;57.20;;;;;;4985623;28;20219;-57
2020/12/17 02:35:04;;;;;;;1.80;1.60;;;19.00;57.20;;;;;;5005723;28;20223;-59
2020/12/17 02:37:32;;;;;;;1.63;1.40;;;19.00;57.20;;;;;;4996919;28;20418;-56
2020/12/17 02:39:59;;;;;;;1.93;1.43;;;19.00;57.20;;;;;;5005367;28;20220;-57
2020/12/17 02:42:26;;;;;;;1.70;1.57;;;19.00;57.30;;;;;;4997198;28;20239;-57
2020/12/17 02:44:52;;;;;;;1.67;1.43;;;19.00;57.20;;;;;;5007028;28;20892;-58
2020/12/17 02:47:19;;;;;;;1.97;1.33;;;19.00;57.30;;;;;;4997490;28;20696;-59
2020/12/17 02:49:47;;;;;;;1.63;1.30;;;19.00;57.30;;;;;;5006983;28;20220;-59
2020/12/17 02:52:14;;;;;;;1.60;1.27;;;18.90;57.20;;;;;;4997000;28;20231;-56
2020/12/17 02:54:41;;;;;;;1.63;1.50;;;19.00;57.30;;;;;;5005619;28;20233;-59
2020/12/17 02:57:07;;;;;;;1.57;1.30;;;18.90;57.20;;;;;;5000299;28;20549;-59
2020/12/17 02:59:34;;;;;;;1.77;1.53;;;18.90;57.20;;;;;;5003774;28;20223;-57
2020/12/17 03:02:00;;;;;;;1.33;1.20;;;18.90;57.20;;;;;;5006335;28;20222;-57
2020/12/17 03:04:26;;;;;;;1.90;1.23;;;18.90;57.30;;;;;;4994232;28;20227;-57
2020/12/17 03:06:52;;;;;;;1.60;1.23;;;18.90;57.20;;;;;;5006773;28;20227;-59
2020/12/17 03:09:19;;;;;;;1.23;1.13;;;18.90;57.30;;;;;;4997595;28;20233;-59
2020/12/17 03:11:45;;;;;;;1.47;1.37;;;18.90;57.30;;;;;;5006839;28;20239;-62
2020/12/17 03:14:11;;;;;;;1.50;1.20;;;18.90;57.30;;;;;;4996933;28;20223;-58
2020/12/17 03:16:38;;;;;;;2.40;1.27;;;18.90;57.30;;;;;;5007319;28;20235;-56
2020/12/17 03:19:04;;;;;;;2.53;1.57;;;18.90;57.30;;;;;;4996053;28;20219;-58
2020/12/17 03:21:30;;;;;;;1.20;1.10;;;18.90;57.30;;;;;;5005639;28;20246;-59
2020/12/17 03:23:57;;;;;;;1.87;1.20;;;18.90;57.30;;;;;;4997299;28;20235;-57
2020/12/17 03:26:23;;;;;;;1.70;1.20;;;18.90;57.40;;;;;;5005572;28;20837;-57
2020/12/17 03:28:49;;;;;;;1.67;1.27;;;18.90;57.40;;;;;;4997149;28;20234;-59
2020/12/17 03:31:17;;;;;;;3.17;1.57;;;18.90;57.40;;;;;;5007001;28;20230;-57
2020/12/17 03:33:43;;;;;;;1.73;1.40;;;18.90;57.40;;;;;;4996523;28;20235;-60
2020/12/17 03:36:15;;;;;;;1.37;1.17;;;18.90;57.40;;;;;;5004887;28;20224;-59
2020/12/17 03:38:41;;;;;;;1.17;1.07;;;18.80;57.40;;;;;;5003571;28;20227;-56
2020/12/17 03:41:07;;;;;;;1.40;1.30;;;18.80;57.30;;;;;;4997142;28;20232;-58
2020/12/17 03:43:33;;;;;;;1.97;1.40;;;18.80;57.30;;;;;;5003835;28;20583;-59
2020/12/17 03:46:00;;;;;;;1.30;1.10;;;18.80;57.40;;;;;;4998487;28;20285;-59
2020/12/17 03:48:26;;;;;;;1.70;1.23;;;18.80;57.30;;;;;;5019590;28;20227;-58
2020/12/17 03:50:52;;;;;;;1.43;1.23;;;18.80;57.30;;;;;;4998754;28;20226;-59
2020/12/17 03:53:19;;;;;;;1.50;1.40;;;18.80;57.30;;;;;;5003848;28;20723;-57
2020/12/17 03:55:45;;;;;;;2.70;0.90;;;18.80;57.30;;;;;;4996434;28;20227;-57
2020/12/17 03:58:12;;;;;;;1.60;1.37;;;18.80;57.40;;;;;;5006441;28;20219;-57
2020/12/17 04:00:38;;;;;;;1.53;1.40;;;18.80;57.40;;;;;;4991608;28;20620;-57
2020/12/17 04:03:05;;;;;;;1.97;1.30;;;18.80;57.40;;;;;;5005835;28;20223;-58
2020/12/17 04:05:31;;;;;;;1.47;1.27;;;18.80;57.40;;;;;;4997845;28;20216;-58
2020/12/17 04:07:58;;;;;;;2.37;1.53;;;18.80;57.50;;;;;;5004590;28;20247;-58
2020/12/17 04:10:24;;;;;;;2.10;1.37;;;18.70;57.30;;;;;;4997085;28;20224;-58
2020/12/17 04:12:50;;;;;;;1.43;1.27;;;18.80;57.40;;;;;;5006276;28;20234;-58
2020/12/17 04:15:17;;;;;;;1.20;1.10;;;18.80;57.40;;;;;;5005864;28;20235;-59
2020/12/17 04:17:43;;;;;;;1.70;1.60;;;18.80;57.80;;;;;;5006112;28;20224;-57
2020/12/17 04:20:10;;;;;;;2.13;1.60;;;18.80;57.30;;;;;;5006674;28;20219;-57
2020/12/17 04:22:36;;;;;;;1.80;1.50;;;18.80;57.30;;;;;;5001549;28;20570;-57
2020/12/17 04:25:03;;;;;;;1.53;1.13;;;18.80;57.30;;;;;;5006931;28;20223;-58
2020/12/17 04:27:30;;;;;;;2.00;1.50;;;18.70;57.30;;;;;;5001632;28;20235;-57
2020/12/17 04:29:56;;;;;;;2.10;1.57;;;18.80;57.30;;;;;;5007150;28;20599;-57
2020/12/17 04:32:23;;;;;;;1.30;1.20;;;18.80;57.30;;;;;;4999328;28;20239;-57
2020/12/17 04:34:49;;;;;;;1.83;1.43;;;18.70;57.20;;;;;;5007236;28;20223;-57
2020/12/17 04:37:16;;;;;;;1.67;1.43;;;18.70;57.30;;;;;;5000807;28;20251;-57
2020/12/17 04:39:42;;;;;;;2.83;1.50;;;18.70;57.30;;;;;;5006727;28;20251;-58
2020/12/17 04:42:09;;;;;;;1.50;1.40;;;18.70;57.30;;;;;;4999482;28;20231;-57
2020/12/17 04:44:35;;;;;;;1.40;1.20;;;18.70;57.30;;;;;;5008110;28;20231;-57
2020/12/17 04:47:05;;;;;;;1.77;1.30;;;18.80;57.40;;;;;;5000069;28;20227;-58
2020/12/17 04:50:01;;;;;;;2.27;1.40;;;18.70;57.40;;;;;;4999459;28;20239;-57
2020/12/17 04:52:30;;;;;;;1.27;1.17;;;18.70;57.50;;;;;;4974203;28;20231;-58
2020/12/17 04:54:58;;;;;;;6.77;1.30;;;18.70;57.50;;;;;;4999636;28;20232;-57
2020/12/17 04:57:26;;;;;;;2.10;1.43;;;18.70;57.40;;;;;;5000366;28;20231;-57
2020/12/17 04:59:53;;;;;;;1.50;1.20;;;18.70;57.40;;;;;;5005514;28;20234;-57
2020/12/17 05:02:21;;;;;;;2.63;1.20;;;18.70;57.40;;;;;;5002623;28;20706;-57
2020/12/17 05:04:48;;;;;;;1.90;1.50;;;18.70;57.40;;;;;;5003527;28;20227;-58
2020/12/17 05:07:17;;;;;;;1.77;1.40;;;18.70;57.50;;;;;;5007508;28;20300;-57
2020/12/17 05:09:45;;;;;;;1.47;1.30;;;18.60;57.40;;;;;;4997886;28;20240;-57
2020/12/17 05:12:13;;;;;;;3.00;1.40;;;18.60;57.40;;;;;;5006908;28;20216;-59
2020/12/17 05:14:40;;;;;;;2.07;1.33;;;18.70;57.40;;;;;;4998272;28;20239;-59
2020/12/17 05:17:07;;;;;;;1.93;1.47;;;18.70;57.40;;;;;;5009154;28;20227;-59
2020/12/17 05:19:34;;;;;;;2.17;1.40;;;18.60;57.30;;;;;;4999459;28;20257;-58
2020/12/17 05:22:02;;;;;;;1.60;1.17;;;18.70;57.40;;;;;;5007256;28;20235;-58
2020/12/17 05:24:29;;;;;;;2.93;1.50;;;18.60;57.20;;;;;;4998620;28;20231;-63
2020/12/17 05:26:57;;;;;;;2.13;1.30;;;18.60;57.20;;;;;;5005816;28;21009;-59
2020/12/17 05:29:24;;;;;;;3.37;1.80;;;18.70;57.20;;;;;;4998917;28;20250;-60
2020/12/17 05:31:51;;;;;;;1.43;1.33;;;18.60;57.10;;;;;;4991740;28;20316;-58
2020/12/17 05:34:18;;;;;;;1.90;1.60;;;18.60;57.20;;;;;;4982983;28;20235;-63
2020/12/17 05:36:45;;;;;;;2.37;1.47;;;18.60;57.20;;;;;;4986590;28;20232;-59
2020/12/17 05:39:17;;;;;;;2.17;1.23;;;18.60;57.30;;;;;;4980040;28;20228;-59
2020/12/17 05:41:46;;;;;;;1.40;1.30;;;18.60;57.10;;;;;;4987576;28;20231;-60
2020/12/17 05:44:29;;;;;;;1.53;1.40;;;18.60;57.20;;;;;;4980005;28;20235;-59
2020/12/17 05:46:56;;;;;;;1.73;1.40;;;18.60;57.10;;;;;;4992099;28;20230;-58
2020/12/17 05:49:27;;;;;;;1.47;1.20;;;18.60;57.10;;;;;;4983634;28;20239;-59
2020/12/17 05:52:21;;;;;;;1.70;1.60;;;18.60;57.20;;;;;;4985532;28;20224;-57
2020/12/17 05:54:53;;;;;;;3.10;1.40;;;18.60;57.20;;;;;;4976955;28;20239;-58
2020/12/17 05:57:20;;;;;;;3.17;1.43;;;18.60;57.20;;;;;;4985882;28;20234;-58
2020/12/17 06:00:03;;;;;;;2.27;1.40;;;18.60;57.20;;;;;;4979483;28;20227;-59
2020/12/17 06:02:35;;;;;;;1.67;1.20;;;18.60;57.20;;;;;;4987587;28;20240;-59
2020/12/17 06:05:15;;;;;;;1.20;1.10;;;18.60;57.10;;;;;;4977811;28;20700;-60
2020/12/17 06:07:45;;;;;;;1.40;1.30;;;18.60;57.30;;;;;;5000698;28;20249;-60
2020/12/17 06:10:21;;;;;;;1.40;1.20;;;18.60;57.30;;;;;;4998011;28;20637;-58
2020/12/17 06:12:49;;;;;;;2.10;1.40;;;18.60;57.30;;;;;;4986841;28;20216;-58
2020/12/17 06:15:19;;;;;;;2.37;1.20;;;18.60;57.20;;;;;;4983606;28;20224;-59
2020/12/17 06:17:53;;;;;;;2.30;1.40;;;18.60;57.30;;;;;;4995343;28;20226;-57
2020/12/17 06:20:24;;;;;;;2.10;1.20;;;18.60;57.30;;;;;;4985199;28;20229;-58
2020/12/17 06:22:52;;;;;;;5.57;2.17;;;18.60;57.20;;;;;;4995439;28;20223;-59
2020/12/17 06:25:19;;;;;;;3.90;1.77;;;18.60;57.50;;;;;;4992506;28;21553;-57
2020/12/17 06:27:48;;;;;;;7.17;2.60;;;18.60;57.40;;;;;;4985455;28;20238;-58
2020/12/17 06:30:17;;;;;;;6.57;2.50;;;18.60;57.50;;;;;;5004459;28;20303;-58
2020/12/17 06:32:44;;;;;;;6.97;3.20;;;18.60;57.60;;;;;;4979889;28;20239;-58
2020/12/17 06:35:34;;;;;;;6.93;2.90;;;18.60;57.60;;;;;;4986253;28;20713;-58
2020/12/17 06:38:11;;;;;;;8.53;2.40;;;18.60;57.60;;;;;;4984891;28;20256;-58
2020/12/17 06:40:38;;;;;;;7.80;2.53;;;18.60;57.50;;;;;;4985597;28;20232;-59
2020/12/17 06:43:12;;;;;;;7.93;3.00;;;18.60;57.50;;;;;;4976931;28;20228;-59
2020/12/17 06:45:39;;;;;;;7.80;3.00;;;18.60;57.70;;;;;;4979793;28;20242;-58
2020/12/17 06:48:41;;;;;;;5.27;2.40;;;18.60;57.50;;;;;;4978058;28;20239;-57
2020/12/17 06:51:30;;;;;;;7.33;2.70;;;18.60;57.70;;;;;;4982048;28;21716;-59
2020/12/17 06:53:57;;;;;;;5.80;2.23;;;18.60;57.70;;;;;;4977805;28;20244;-58
2020/12/17 06:56:23;;;;;;;4.80;2.40;;;18.60;57.80;;;;;;4975980;28;20368;-59
2020/12/17 06:59:13;;;;;;;10.27;2.43;;;18.60;57.90;;;;;;4975731;28;20236;-58
2020/12/17 07:01:40;;;;;;;8.83;2.70;;;18.60;58.00;;;;;;4983933;28;21524;-59
2020/12/17 07:04:07;;;;;;;4.63;2.03;;;18.70;58.40;;;;;;4978684;28;20243;-58
2020/12/17 07:06:38;;;;;;;6.93;2.03;;;18.80;58.40;;;;;;4987075;28;20216;-58
2020/12/17 07:09:05;;;;;;;6.60;2.23;;;18.70;58.00;;;;;;4973365;28;20232;-56
2020/12/17 07:11:45;;;;;;;10.37;2.37;;;18.70;57.90;;;;;;4983096;28;20753;-59
2020/12/17 07:14:32;;;;;;;8.07;2.20;;;18.80;58.50;;;;;;4975491;28;20270;-60
2020/12/17 07:17:02;;;;;;;8.07;2.30;;;18.80;58.50;;;;;;4991097;28;21148;-61
2020/12/17 07:19:31;;;;;;;5.27;2.30;;;18.90;58.30;;;;;;4997059;28;20851;-59
2020/12/17 07:22:03;;;;;;;4.00;2.03;;;18.90;58.10;;;;;;4993233;28;20779;-60
2020/12/17 07:24:32;;;;;;;6.47;2.10;;;19.00;57.90;;;;;;4972902;28;20328;-61
2020/12/17 07:27:23;;;;;;;4.97;2.10;;;19.00;58.00;;;;;;4991478;28;20276;-59
2020/12/17 07:30:09;;;;;;;5.30;2.33;;;19.10;57.70;;;;;;4985343;28;20877;-58
2020/12/17 07:32:46;;;;;;;4.53;2.10;;;19.20;57.70;;;;;;5006333;28;20235;-57
2020/12/17 07:35:20;;;;;;;5.53;1.90;;;19.20;57.60;;;;;;4998470;28;20235;-58
2020/12/17 07:37:54;;;;;;;6.13;1.87;;;19.20;57.40;;;;;;5019827;28;20230;-60
2020/12/17 07:40:32;;;;;;;3.70;1.90;;;19.30;57.70;;;;;;4997398;28;20223;-58
2020/12/17 07:43:07;;;;;;;4.43;1.70;;;19.30;57.00;;;;;;5009437;28;20782;-58
2020/12/17 07:46:04;;;;;;;3.17;1.70;;;19.30;56.70;;;;;;4996013;28;20252;-58
2020/12/17 07:48:47;;;;;;;2.53;1.80;;;19.30;56.70;;;;;;5001688;28;20505;-56
2020/12/17 07:51:14;;;;;;;31.20;6.83;;;19.30;56.70;;;;;;4998400;28;20425;-59
2020/12/17 07:53:46;;;;;;;29.80;5.47;;;19.30;57.40;;;;;;5007731;28;20231;-63
2020/12/17 07:56:52;;;;;;;32.90;6.70;;;19.40;57.50;;;;;;4977601;28;20239;-56
2020/12/17 07:59:25;;;;;;;22.63;6.27;;;19.40;57.50;;;;;;4959468;28;20243;-57
2020/12/17 08:02:03;;;;;;;17.53;6.17;;;19.50;58.30;;;;;;5016970;28;20293;-60
2020/12/17 08:04:29;;;;;;;24.10;6.33;;;19.60;58.80;;;;;;5005933;28;20660;-60
2020/12/17 08:06:55;;;;;;;21.67;5.77;;;19.70;59.80;;;;;;5003211;28;20230;-61
2020/12/17 08:09:24;;;;;;;13.97;5.30;;;19.80;58.80;;;;;;5002903;28;20243;-60
2020/12/17 08:11:55;;;;;;;14.47;5.00;;;19.80;59.30;;;;;;5000465;28;20736;-61
2020/12/17 08:14:23;;;;;;;12.43;5.23;;;19.80;58.80;;;;;;5005313;28;20482;-61
2020/12/17 08:17:07;;;;;;;11.93;5.13;;;19.90;58.50;;;;;;4999164;28;20500;-63
2020/12/17 08:19:34;;;;;;;8.77;4.70;;;20.00;58.70;;;;;;5006172;28;21642;-59
2020/12/17 08:22:02;;;;;;;8.63;4.67;;;20.00;58.70;;;;;;4997343;28;21709;-61
2020/12/17 08:24:29;;;;;;;11.40;5.00;;;20.10;58.50;;;;;;5006481;28;20219;-61
2020/12/17 08:26:55;;;;;;;11.57;4.80;;;20.10;58.20;;;;;;4999552;28;20235;-62
2020/12/17 08:29:23;;;;;;;9.40;3.83;;;20.10;58.30;;;;;;5007159;28;20739;-62
2020/12/17 08:31:51;;;;;;;8.17;4.20;;;20.10;57.80;;;;;;4998116;28;20319;-65
2020/12/17 08:34:18;;;;;;;11.07;4.43;;;20.20;57.90;;;;;;5004379;28;20231;-65
2020/12/17 08:36:45;;;;;;;9.80;3.97;;;20.20;57.50;;;;;;4997723;28;20257;-62
2020/12/17 08:39:14;;;;;;;7.37;3.57;;;20.30;57.50;;;;;;4988973;28;20222;-65
2020/12/17 08:41:53;;;;;;;9.20;4.13;;;20.30;57.20;;;;;;4997973;28;20702;-61
2020/12/17 08:44:40;;;;;;;8.87;4.13;;;20.40;57.00;;;;;;5002306;28;20515;-60
2020/12/17 08:47:13;;;;;;;10.13;4.10;;;20.40;56.70;;;;;;4997239;28;20454;-60
2020/12/17 08:49:43;;;;;;;6.37;3.50;;;20.40;56.40;;;;;;5006963;28;20235;-59
2020/12/17 08:52:12;;;;;;;6.07;3.57;;;20.50;56.40;;;;;;4996421;28;20228;-61
2020/12/17 08:54:38;;;;;;;10.20;3.47;;;20.50;56.20;;;;;;5007068;28;20238;-57
2020/12/17 08:57:09;;;;;;;5.57;3.37;;;20.60;56.10;;;;;;4999914;28;20227;-61
2020/12/17 08:59:37;;;;;;;12.77;3.07;;;20.60;55.90;;;;;;5004025;28;20230;-58
2020/12/17 09:02:04;;;;;;;5.70;3.67;;;20.70;55.80;;;;;;5003708;28;20219;-60
2020/12/17 09:04:30;;;;;;;6.43;3.63;;;20.70;55.50;;;;;;5000679;28;21642;-59
2020/12/17 09:07:01;;;;;;;5.60;3.13;;;20.70;55.50;;;;;;5001877;28;20242;-66
2020/12/17 09:09:30;;;;;;;7.40;2.93;;;20.80;55.30;;;;;;4998350;28;20231;-65
2020/12/17 09:12:02;;;;;;;5.63;2.77;;;20.80;55.30;;;;;;5004029;28;20227;-62
2020/12/17 09:14:32;;;;;;;5.90;3.20;;;20.80;55.00;;;;;;4997210;28;20246;-61
2020/12/17 09:17:15;;;;;;;6.23;2.80;;;20.90;55.00;;;;;;5008122;28;20216;-63
2020/12/17 09:19:46;;;;;;;4.20;2.57;;;20.90;55.00;;;;;;5000079;28;20238;-63
2020/12/17 09:22:15;;;;;;;5.30;2.83;;;21.00;54.90;;;;;;5007101;28;20820;-60
2020/12/17 09:24:46;;;;;;;3.60;2.57;;;21.00;55.00;;;;;;5004578;28;20232;-64
2020/12/17 09:27:20;;;;;;;3.90;2.60;;;21.00;54.60;;;;;;5006424;28;21583;-59
2020/12/17 09:30:07;;;;;;;4.13;2.10;;;21.00;54.70;;;;;;4996526;28;20833;-60
2020/12/17 09:32:35;;;;;;;4.70;2.77;;;21.10;54.80;;;;;;4993522;28;20254;-59
2020/12/17 09:35:12;;;;;;;3.37;2.50;;;21.10;55.20;;;;;;4995805;28;20227;-58
2020/12/17 09:37:41;;;;;;;6.63;2.23;;;21.10;54.60;;;;;;5004983;28;20231;-59
2020/12/17 09:40:10;;;;;;;3.93;2.20;;;21.10;54.50;;;;;;4998515;28;20583;-60
2020/12/17 09:42:37;;;;;;;3.47;2.10;;;21.20;54.40;;;;;;5005722;28;20246;-58
2020/12/17 09:45:17;;;;;;;2.80;2.10;;;21.20;54.20;;;;;;4997317;28;20232;-59
2020/12/17 09:47:44;;;;;;;2.57;2.00;;;21.20;54.30;;;;;;5006201;28;20261;-59
2020/12/17 09:50:14;;;;;;;2.63;1.90;;;21.20;54.90;;;;;;4992725;28;20284;-64
2020/12/17 09:52:41;;;;;;;2.90;1.97;;;21.20;54.10;;;;;;5004918;28;20243;-60
2020/12/17 09:55:07;;;;;;;2.70;1.70;;;21.20;53.70;;;;;;4998036;28;20594;-60
2020/12/17 09:57:41;;;;;;;3.83;1.83;;;20.90;52.60;;;;;;5005381;28;20215;-60
2020/12/17 10:00:12;;;;;;;3.33;2.00;;;20.80;53.10;;;;;;4997882;28;20678;-64
2020/12/17 10:02:39;;;;;;;2.67;1.80;;;20.70;54.00;;;;;;5002228;28;20231;-65
2020/12/17 10:05:07;;;;;;;2.90;1.70;;;20.80;54.80;;;;;;4995742;28;20239;-60
2020/12/17 10:07:33;;;;;;;2.20;1.53;;;20.90;54.80;;;;;;5004905;28;20725;-59
2020/12/17 10:10:00;;;;;;;3.57;1.77;;;21.00;54.70;;;;;;5005683;28;20236;-60
2020/12/17 10:12:40;;;;;;;5.00;1.70;;;21.00;54.90;;;;;;4987658;28;20704;-59
2020/12/17 10:15:06;;;;;;;4.70;1.67;;;21.10;54.70;;;;;;5000250;28;20234;-58
2020/12/17 10:17:32;;;;;;;2.30;1.57;;;21.20;54.80;;;;;;4992146;28;20227;-59
2020/12/17 10:19:59;;;;;;;1.90;1.47;;;21.20;54.50;;;;;;4997738;28;20224;-59
2020/12/17 10:22:38;;;;;;;2.03;1.30;;;21.20;54.50;;;;;;4978039;28;20310;-60
2020/12/17 10:25:05;;;;;;;1.70;1.13;;;21.30;54.70;;;;;;4987162;28;20585;-60
2020/12/17 10:27:33;;;;;;;2.00;1.40;;;21.30;54.40;;;;;;4976871;28;20238;-61
2020/12/17 10:29:59;;;;;;;2.87;1.57;;;21.30;54.30;;;;;;4985708;28;20231;-59
2020/12/17 10:32:26;;;;;;;3.60;1.63;;;21.30;54.30;;;;;;4977070;28;20363;-59
2020/12/17 10:34:52;;;;;;;2.70;1.80;;;21.40;54.20;;;;;;4988999;28;20234;-60
2020/12/17 10:37:18;;;;;;;1.93;1.40;;;21.40;54.10;;;;;;4975845;28;20290;-60
2020/12/17 10:39:45;;;;;;;2.50;1.50;;;21.40;54.00;;;;;;4983932;28;20223;-61
2020/12/17 10:42:12;;;;;;;2.53;1.07;;;21.50;53.80;;;;;;4977982;28;20228;-63
2020/12/17 10:44:38;;;;;;;1.60;1.30;;;21.50;53.70;;;;;;4986932;28;20653;-64
2020/12/17 10:47:06;;;;;;;1.60;1.40;;;21.50;54.00;;;;;;4983039;28;20293;-65
2020/12/17 10:49:33;;;;;;;4.57;1.10;;;21.60;54.20;;;;;;4984406;28;20801;-65
2020/12/17 10:52:00;;;;;;;3.20;1.47;;;21.50;54.10;;;;;;4976333;28;20243;-57
2020/12/17 10:54:26;;;;;;;1.83;1.40;;;21.60;54.00;;;;;;5003061;28;20240;-59
2020/12/17 10:56:52;;;;;;;2.63;1.23;;;21.60;53.90;;;;;;5005124;28;20224;-58
2020/12/17 10:59:18;;;;;;;3.43;1.47;;;21.60;53.70;;;;;;5005969;28;20234;-61
2020/12/17 11:01:45;;;;;;;2.47;1.50;;;21.60;53.70;;;;;;4983330;28;20224;-61
2020/12/17 11:04:12;;;;;;;6.20;1.50;;;21.70;53.60;;;;;;4986604;28;20223;-59
2020/12/17 11:06:39;;;;;;;3.87;1.50;;;21.70;53.90;;;;;;4989223;28;20260;-59
2020/12/17 11:09:05;;;;;;;1.90;1.30;;;21.70;53.60;;;;;;4972719;28;20254;-60
2020/12/17 11:11:31;;;;;;;1.77;1.47;;;21.70;53.60;;;;;;4984989;28;20540;-61
2020/12/17 11:13:58;;;;;;;2.07;1.33;;;21.70;53.90;;;;;;4976081;28;20235;-59
2020/12/17 11:16:26;;;;;;;2.40;1.33;;;21.80;53.80;;;;;;4983771;28;20236;-60
2020/12/17 11:18:53;;;;;;;2.67;1.43;;;21.80;53.90;;;;;;4977305;28;20232;-61
2020/12/17 11:21:20;;;;;;;4.13;1.50;;;21.80;53.80;;;;;;4984861;28;20526;-59
2020/12/17 11:23:46;;;;;;;1.30;1.07;;;21.80;54.50;;;;;;4992674;28;20240;-62
2020/12/17 11:26:13;;;;;;;2.60;1.53;;;21.80;53.50;;;;;;4989108;28;20220;-59
2020/12/17 11:28:39;;;;;;;2.13;1.30;;;21.80;53.60;;;;;;4982833;28;21556;-59
2020/12/17 11:31:06;;;;;;;2.37;1.73;;;21.90;53.40;;;;;;4986143;28;20238;-61
2020/12/17 11:33:33;;;;;;;2.67;1.53;;;21.90;53.70;;;;;;4987288;28;20233;-60
2020/12/17 11:35:59;;;;;;;2.37;1.50;;;21.90;53.60;;;;;;5005721;28;20227;-60
2020/12/17 11:38:25;;;;;;;2.77;1.70;;;22.00;53.50;;;;;;4990914;28;20239;-59
2020/12/17 11:40:52;;;;;;;5.00;1.50;;;21.90;53.20;;;;;;4994004;28;20270;-58
2020/12/17 11:43:33;;;;;;;3.97;1.60;;;22.00;53.30;;;;;;4985019;28;20641;-60
2020/12/17 11:45:59;;;;;;;4.53;1.67;;;22.00;53.90;;;;;;4998679;28;20224;-59
2020/12/17 11:48:26;;;;;;;2.30;1.30;;;22.00;53.90;;;;;;5005941;28;20231;-60
2020/12/17 11:50:52;;;;;;;4.23;1.90;;;22.00;53.50;;;;;;4998583;28;20230;-58
2020/12/17 11:53:19;;;;;;;2.87;1.40;;;22.00;53.80;;;;;;4988233;28;20278;-59
2020/12/17 11:55:45;;;;;;;2.90;1.20;;;22.00;53.70;;;;;;4981294;28;20233;-59
2020/12/17 11:58:11;;;;;;;2.93;1.90;;;22.10;53.70;;;;;;4989758;28;20235;-59
2020/12/17 12:00:37;;;;;;;3.00;1.83;;;22.10;53.70;;;;;;4996379;28;20794;-58
2020/12/17 12:03:04;;;;;;;4.93;1.87;;;22.10;53.50;;;;;;4987543;28;20221;-59
2020/12/17 12:05:30;;;;;;;3.33;1.50;;;22.10;53.70;;;;;;4981153;28;20224;-59
2020/12/17 12:07:57;;;;;;;3.23;1.80;;;22.20;53.70;;;;;;4985202;28;20295;-60
2020/12/17 12:10:24;;;;;;;3.33;1.67;;;22.20;54.10;;;;;;4979091;28;20606;-61
2020/12/17 12:12:51;;;;;;;3.00;1.60;;;22.20;53.60;;;;;;4997727;28;20594;-62
2020/12/17 12:15:17;;;;;;;3.17;1.67;;;22.20;53.40;;;;;;4981813;28;20220;-56
2020/12/17 12:17:44;;;;;;;3.10;1.70;;;22.20;52.70;;;;;;4984178;28;20239;-57
2020/12/17 12:20:10;;;;;;;3.27;1.60;;;22.10;52.70;;;;;;4985340;28;20243;-56
2020/12/17 12:22:37;;;;;;;3.87;1.90;;;22.10;52.70;;;;;;4978446;28;20224;-58
2020/12/17 12:25:04;;;;;;;5.00;1.93;;;22.00;52.80;;;;;;4999469;28;20613;-58
2020/12/17 12:27:31;;;;;;;3.23;2.00;;;22.00;53.00;;;;;;5014279;28;20621;-59
2020/12/17 12:29:57;;;;;;;7.50;2.10;;;22.00;53.20;;;;;;5005362;28;20234;-60
2020/12/17 12:32:23;;;;;;;4.33;2.00;;;21.90;54.70;;;;;;4998961;28;20227;-61
2020/12/17 12:34:49;;;;;;;3.77;1.77;;;21.90;54.50;;;;;;4996988;28;20216;-60
2020/12/17 12:37:16;;;;;;;5.37;2.10;;;22.00;54.60;;;;;;4978752;28;20227;-62
2020/12/17 12:39:42;;;;;;;4.17;2.30;;;22.00;54.30;;;;;;4988969;28;20298;-61
2020/12/17 12:42:09;;;;;;;4.47;2.07;;;22.00;54.40;;;;;;4978928;28;20235;-58
2020/12/17 12:44:35;;;;;;;4.33;2.10;;;22.00;54.20;;;;;;4986926;28;20242;-60
2020/12/17 12:47:02;;;;;;;4.03;1.73;;;22.00;54.00;;;;;;4986877;28;20707;-59
2020/12/17 12:49:29;;;;;;;4.87;1.93;;;22.00;54.60;;;;;;4986002;28;20692;-58
2020/12/17 12:51:55;;;;;;;6.33;3.20;;;21.90;54.10;;;;;;4980001;28;20327;-61
2020/12/17 12:54:21;;;;;;;4.50;2.27;;;21.80;56.30;;;;;;4984627;28;20235;-59